createdAt,value
2022-10-11T00:02:18.180Z,100.00
2022-10-11T00:04:46.277Z,100.00
2022-10-11T00:07:15.378Z,100.00
2022-10-11T00:09:43.243Z,100.00
2022-10-11T00:12:11.292Z,100.00
2022-10-11T00:14:39.732Z,100.00
2022-10-11T00:17:08.620Z,100.00
2022-10-11T00:19:36.309Z,100.00
2022-10-11T00:22:04.161Z,100.00
2022-10-11T00:24:33.269Z,100.00
2022-10-11T00:27:00.990Z,100.00
2022-10-11T00:29:28.683Z,100.00
2022-10-11T00:31:56.437Z,100.00
2022-10-11T00:34:24.381Z,100.00
2022-10-11T00:36:52.119Z,100.00
2022-10-11T00:39:19.802Z,100.00
2022-10-11T00:41:49.293Z,100.00
2022-10-11T00:44:20.083Z,100.00
2022-10-11T00:46:55.993Z,100.00
2022-10-11T00:49:34.404Z,100.00
2022-10-11T00:52:07.938Z,100.00
2022-10-11T00:54:40.448Z,100.00
2022-10-11T00:57:15.460Z,100.00
2022-10-11T00:59:46.488Z,100.00
2022-10-11T01:02:15.414Z,100.00
2022-10-11T01:04:43.729Z,100.00
2022-10-11T01:07:12.198Z,100.00
2022-10-11T01:09:40.170Z,100.00
2022-10-11T01:12:16.767Z,100.00
2022-10-11T01:14:56.727Z,100.00
2022-10-11T01:17:34.131Z,100.00
2022-10-11T01:20:32.113Z,100.00
2022-10-11T01:23:22.806Z,100.00
2022-10-11T01:26:08.077Z,100.00
2022-10-11T01:28:49.440Z,100.00
2022-10-11T01:31:25.941Z,100.00
2022-10-11T01:34:00.438Z,100.00
2022-10-11T01:36:32.829Z,100.00
2022-10-11T01:39:05.475Z,100.00
2022-10-11T01:41:39.514Z,100.00
2022-10-11T01:44:09.265Z,100.00
2022-10-11T01:46:38.506Z,100.00
2022-10-11T01:49:06.799Z,100.00
2022-10-11T01:51:37.181Z,100.00
2022-10-11T01:54:21.623Z,100.00
2022-10-11T01:57:25.288Z,100.00
2022-10-11T02:00:03.374Z,100.00
2022-10-11T02:02:45.783Z,100.00
2022-10-11T02:05:21.468Z,100.00
2022-10-11T02:07:57.114Z,100.00
2022-10-11T02:10:31.352Z,100.00
2022-10-11T02:13:04.509Z,100.00
2022-10-11T02:15:35.056Z,100.00
2022-10-11T02:18:09.498Z,100.00
2022-10-11T02:20:40.716Z,100.00
2022-10-11T02:23:13.111Z,100.00
2022-10-11T02:25:41.484Z,100.00
2022-10-11T02:28:14.145Z,100.00
2022-10-11T02:30:43.741Z,100.00
2022-10-11T02:33:16.519Z,100.00
2022-10-11T02:35:50.469Z,100.00
2022-10-11T02:38:23.532Z,100.00
2022-10-11T02:40:56.233Z,100.00
2022-10-11T02:43:31.193Z,100.00
2022-10-11T02:46:01.104Z,100.00
2022-10-11T02:48:31.603Z,100.00
2022-10-11T02:50:59.731Z,100.00
2022-10-11T02:53:28.107Z,100.00
2022-10-11T02:55:56.781Z,100.00
2022-10-11T02:58:25.360Z,100.00
2022-10-11T03:00:53.218Z,100.00
2022-10-11T03:03:21.527Z,100.00
2022-10-11T03:05:50.586Z,100.00
2022-10-11T03:08:18.932Z,100.00
2022-10-11T03:10:46.674Z,100.00
2022-10-11T03:13:18.087Z,100.00
2022-10-11T03:16:00.719Z,100.00
2022-10-11T03:18:30.926Z,100.00
2022-10-11T03:21:00.142Z,100.00
2022-10-11T03:23:27.936Z,100.00
2022-10-11T03:25:55.754Z,100.00
2022-10-11T03:28:23.541Z,100.00
2022-10-11T03:30:52.335Z,100.00
2022-10-11T03:33:20.643Z,100.00
2022-10-11T03:35:50.027Z,100.00
2022-10-11T03:38:21.500Z,100.00
2022-10-11T03:40:49.292Z,100.00
2022-10-11T03:43:17.274Z,100.00
2022-10-11T03:45:45.464Z,100.00
2022-10-11T03:48:13.313Z,100.00
2022-10-11T03:50:41.087Z,100.00
2022-10-11T03:53:09.374Z,100.00
2022-10-11T03:55:41.130Z,100.00
2022-10-11T03:58:09.395Z,100.00
2022-10-11T04:00:37.707Z,100.00
2022-10-11T04:03:05.705Z,100.00
2022-10-11T04:05:33.437Z,100.00
2022-10-11T04:08:01.319Z,100.00
2022-10-11T04:10:30.947Z,100.00
2022-10-11T04:12:59.986Z,100.00
2022-10-11T04:15:27.749Z,100.00
2022-10-11T04:17:55.425Z,100.00
2022-10-11T04:20:23.121Z,100.00
2022-10-11T04:22:50.866Z,100.00
2022-10-11T04:25:18.696Z,100.00
2022-10-11T04:27:54.520Z,100.00
2022-10-11T04:30:24.614Z,100.00
2022-10-11T04:32:52.376Z,100.00
2022-10-11T04:35:20.503Z,100.00
2022-10-11T04:37:48.234Z,100.00
2022-10-11T04:40:16.011Z,100.00
2022-10-11T04:42:43.771Z,100.00
2022-10-11T04:45:11.814Z,100.00
2022-10-11T04:47:41.593Z,100.00
2022-10-11T04:50:09.730Z,100.00
2022-10-11T04:52:37.419Z,100.00
2022-10-11T04:55:05.763Z,100.00
2022-10-11T04:57:33.525Z,100.00
2022-10-11T05:00:01.196Z,100.00
2022-10-11T05:02:29.005Z,100.00
2022-10-11T05:04:58.499Z,100.00
2022-10-11T05:07:26.323Z,100.00
2022-10-11T05:09:54.648Z,100.00
2022-10-11T05:12:22.421Z,100.00
2022-10-11T05:14:50.273Z,100.00
2022-10-11T05:17:18.100Z,100.00
2022-10-11T05:19:45.821Z,100.00
2022-10-11T05:22:14.951Z,100.00
2022-10-11T05:24:42.644Z,100.00
2022-10-11T05:27:10.367Z,100.00
2022-10-11T05:29:38.105Z,100.00
2022-10-11T05:32:06.246Z,100.00
2022-10-11T05:34:33.987Z,100.00
2022-10-11T05:37:01.806Z,100.00
2022-10-11T05:39:30.959Z,100.00
2022-10-11T05:41:58.734Z,100.00
2022-10-11T05:44:26.773Z,100.00
2022-10-11T05:46:54.875Z,100.00
2022-10-11T05:49:22.804Z,100.00
2022-10-11T05:51:50.591Z,100.00
2022-10-11T05:54:18.292Z,100.00
2022-10-11T05:56:47.402Z,100.00
2022-10-11T05:59:15.333Z,100.00
2022-10-11T06:01:43.257Z,100.00
2022-10-11T06:04:11.977Z,100.00
2022-10-11T06:06:39.721Z,100.00
2022-10-11T06:09:07.423Z,100.00
2022-10-11T06:11:35.204Z,100.00
2022-10-11T06:14:04.395Z,100.00
2022-10-11T06:16:32.314Z,100.00
2022-10-11T06:19:00.191Z,100.00
2022-10-11T06:21:28.047Z,100.00
2022-10-11T06:24:01.167Z,100.00
2022-10-11T06:26:29.430Z,100.00
2022-10-11T06:28:57.371Z,100.00
2022-10-11T06:31:26.701Z,100.00
2022-10-11T06:33:54.418Z,100.00
2022-10-11T06:36:22.130Z,100.00
2022-10-11T06:38:52.620Z,100.00
2022-10-11T06:41:23.219Z,100.00
2022-10-11T06:43:52.067Z,100.00
2022-10-11T06:46:21.005Z,100.00
2022-10-11T06:48:51.352Z,100.00
2022-10-11T06:51:21.669Z,100.00
2022-10-11T06:53:50.880Z,100.00
2022-10-11T06:56:19.558Z,100.00
2022-10-11T06:58:47.455Z,100.00
2022-10-11T07:01:19.042Z,100.00
2022-10-11T07:03:47.269Z,100.00
2022-10-11T07:06:18.767Z,100.00
2022-10-11T07:08:46.561Z,100.00
2022-10-11T07:11:17.069Z,100.00
2022-10-11T07:13:49.430Z,100.00
2022-10-11T07:16:17.562Z,100.00
2022-10-11T07:18:45.490Z,100.00
2022-10-11T07:21:15.212Z,100.00
2022-10-11T07:23:44.544Z,100.00
2022-10-11T07:26:13.272Z,100.00
2022-10-11T07:28:41.362Z,100.00
2022-10-11T07:31:11.583Z,100.00
2022-10-11T07:33:39.530Z,100.00
2022-10-11T07:36:08.782Z,100.00
2022-10-11T07:38:40.060Z,100.00
2022-10-11T07:41:09.582Z,100.00
2022-10-11T07:43:38.015Z,100.00
2022-10-11T07:46:06.691Z,100.00
2022-10-11T07:48:36.248Z,100.00
2022-10-11T07:51:06.647Z,100.00
2022-10-11T07:53:39.365Z,100.00
2022-10-11T07:56:09.492Z,100.00
2022-10-11T07:58:37.304Z,100.00
2022-10-11T08:01:05.518Z,100.00
2022-10-11T08:03:33.318Z,100.00
2022-10-11T08:06:02.864Z,100.00
2022-10-11T08:08:31.095Z,100.00
2022-10-11T08:10:59.393Z,100.00
2022-10-11T08:13:28.822Z,100.00
2022-10-11T08:15:56.617Z,100.00
2022-10-11T08:18:24.932Z,100.00
2022-10-11T08:20:52.794Z,100.00
2022-10-11T08:23:20.926Z,100.00
2022-10-11T08:25:49.275Z,100.00
2022-10-11T08:28:17.933Z,100.00
2022-10-11T08:30:52.205Z,100.00
2022-10-11T08:33:21.493Z,100.00
2022-10-11T08:35:50.394Z,100.00
2022-10-11T08:38:18.678Z,100.00
2022-10-11T08:40:48.379Z,100.00
2022-10-11T08:43:30.413Z,100.00
2022-10-11T08:46:01.434Z,100.00
2022-10-11T08:48:35.431Z,100.00
2022-10-11T08:51:07.109Z,100.00
2022-10-11T08:53:45.060Z,100.00
2022-10-11T08:56:15.480Z,100.00
2022-10-11T08:58:48.158Z,100.00
2022-10-11T09:01:21.768Z,100.00
2022-10-11T09:03:50.965Z,100.00
2022-10-11T09:06:34.583Z,100.00
2022-10-11T09:09:23.988Z,100.00
2022-10-11T09:12:05.452Z,100.00
2022-10-11T09:15:01.193Z,100.00
2022-10-11T09:17:43.654Z,100.00
2022-10-11T09:20:40.974Z,100.00
2022-10-11T09:23:19.128Z,100.00
2022-10-11T09:25:55.761Z,100.00
2022-10-11T09:28:30.443Z,100.00
2022-10-11T09:30:59.658Z,100.00
2022-10-11T09:33:34.663Z,100.00
2022-10-11T09:36:04.029Z,100.00
2022-10-11T09:38:42.172Z,100.00
2022-10-11T09:41:18.071Z,100.00
2022-10-11T09:43:50.915Z,100.00
2022-10-11T09:46:23.161Z,100.00
2022-10-11T09:48:54.545Z,100.00
2022-10-11T09:51:25.126Z,100.00
2022-10-11T09:53:57.282Z,100.00
2022-10-11T09:56:27.620Z,100.00
2022-10-11T09:59:21.813Z,100.00
2022-10-11T10:01:49.598Z,100.00
2022-10-11T10:04:18.841Z,100.00
2022-10-11T10:06:46.756Z,100.00
2022-10-11T10:09:25.971Z,100.00
2022-10-11T10:11:54.657Z,100.00
2022-10-11T10:14:25.654Z,100.00
2022-10-11T10:17:05.082Z,100.00
2022-10-11T10:19:44.987Z,100.00
2022-10-11T10:22:20.292Z,100.00
2022-10-11T10:24:50.191Z,100.00
2022-10-11T10:27:22.050Z,100.00
2022-10-11T10:30:20.734Z,100.00
2022-10-11T10:32:54.878Z,100.00
2022-10-11T10:35:32.485Z,100.00
2022-10-11T10:38:08.866Z,100.00
2022-10-11T10:40:46.466Z,100.00
2022-10-11T10:43:17.244Z,100.00
2022-10-11T10:46:17.085Z,100.00
2022-10-11T10:51:52.705Z,100.00
2022-10-11T10:54:36.417Z,85.22
2022-10-11T10:57:11.839Z,81.99
2022-10-11T11:00:05.437Z,81.07
2022-10-11T11:02:41.894Z,79.13
2022-10-11T11:05:21.558Z,75.39
2022-10-11T11:07:55.461Z,77.61
2022-10-11T11:10:26.494Z,70.05
2022-10-11T11:13:09.025Z,65.59
2022-10-11T11:15:42.131Z,67.67
2022-10-11T11:18:26.842Z,65.29
2022-10-11T11:21:18.049Z,63.47
2022-10-11T11:23:56.032Z,63.73
2022-10-11T11:26:31.101Z,64.01
2022-10-11T11:29:10.638Z,67.93
2022-10-11T11:31:55.787Z,73.92
2022-10-11T11:34:29.563Z,69.17
2022-10-11T11:37:01.249Z,71.33
2022-10-11T11:39:34.117Z,78.30
2022-10-11T11:42:06.799Z,73.36
2022-10-11T11:44:38.154Z,72.94
2022-10-11T11:47:10.977Z,75.81
2022-10-11T11:49:45.310Z,67.01
2022-10-11T11:52:18.790Z,66.07
2022-10-11T11:54:53.044Z,63.62
2022-10-11T11:57:30.049Z,63.37
2022-10-11T12:00:05.333Z,64.30
2022-10-11T12:02:44.644Z,62.30
2022-10-11T12:05:16.412Z,58.58
2022-10-11T12:07:58.705Z,57.30
2022-10-11T12:10:33.296Z,58.76
2022-10-11T12:13:10.593Z,57.29
2022-10-11T12:15:38.674Z,60.51
2022-10-11T12:18:15.526Z,57.19
2022-10-11T12:20:44.958Z,59.73
2022-10-11T12:23:55.538Z,58.48
2022-10-11T12:26:37.817Z,59.98
2022-10-11T12:29:28.777Z,60.61
2022-10-11T12:32:27.480Z,64.20
2022-10-11T12:35:48.595Z,64.01
2022-10-11T12:38:20.996Z,63.44
2022-10-11T12:40:51.235Z,69.01
2022-10-11T12:43:30.775Z,74.42
2022-10-11T12:45:58.645Z,72.72
2022-10-11T12:48:49.434Z,78.29
2022-10-11T12:51:37.270Z,82.24
2022-10-11T12:54:27.449Z,90.52
2022-10-11T12:57:17.177Z,94.09
2022-10-11T12:59:47.154Z,94.10
2022-10-11T13:02:28.961Z,91.91
2022-10-11T13:05:08.090Z,90.34
2022-10-11T13:07:36.738Z,93.72
2022-10-11T13:10:06.485Z,95.08
2022-10-11T13:12:44.251Z,100.00
2022-10-11T13:15:19.058Z,95.82
2022-10-11T13:17:48.661Z,95.91
2022-10-11T13:20:20.465Z,95.79
2022-10-11T13:22:50.813Z,96.09
2022-10-11T13:25:22.046Z,99.67
2022-10-11T13:27:52.315Z,90.22
2022-10-11T13:30:25.469Z,94.70
2022-10-11T13:32:53.811Z,96.17
2022-10-11T13:35:26.797Z,92.31
2022-10-11T13:37:54.682Z,89.64
2022-10-11T13:40:23.279Z,92.39
2022-10-11T13:42:53.125Z,94.98
2022-10-11T13:45:24.352Z,94.30
2022-10-11T13:47:53.573Z,97.08
2022-10-11T13:50:26.509Z,95.61
2022-10-11T13:52:57.627Z,98.79
2022-10-11T13:55:29.264Z,96.97
2022-10-11T13:57:58.851Z,99.73
2022-10-11T14:00:32.028Z,95.90
2022-10-11T14:03:03.783Z,95.70
2022-10-11T14:05:35.451Z,96.76
2022-10-11T14:08:06.206Z,100.00
2022-10-11T14:10:34.581Z,98.36
2022-10-11T14:13:21.156Z,98.62
2022-10-11T14:16:00.259Z,100.00
2022-10-11T14:18:44.411Z,100.00
2022-10-11T14:21:31.741Z,98.48
2022-10-11T14:24:01.345Z,100.00
2022-10-11T14:26:33.845Z,100.00
2022-10-11T14:29:04.049Z,99.32
2022-10-11T14:31:35.808Z,100.00
2022-10-11T14:34:06.382Z,100.00
2022-10-11T14:36:34.305Z,100.00
2022-10-11T14:39:01.990Z,100.00
2022-10-11T14:41:29.714Z,100.00
2022-10-11T14:43:57.849Z,100.00
2022-10-11T14:46:27.773Z,100.00
2022-10-11T14:48:57.003Z,100.00
2022-10-11T14:51:30.706Z,100.00
2022-10-11T14:53:58.795Z,100.00
2022-10-11T14:56:26.529Z,100.00
2022-10-11T14:58:54.221Z,100.00
2022-10-11T15:01:21.938Z,100.00
2022-10-11T15:03:49.747Z,100.00
2022-10-11T15:06:21.476Z,100.00
2022-10-11T15:08:49.539Z,100.00
2022-10-11T15:11:18.914Z,100.00
2022-10-11T15:13:46.802Z,100.00
2022-10-11T15:16:16.723Z,100.00
2022-10-11T15:18:44.936Z,100.00
2022-10-11T15:21:14.852Z,100.00
2022-10-11T15:23:43.961Z,100.00
2022-10-11T15:26:15.156Z,100.00
2022-10-11T15:28:43.309Z,100.00
2022-10-11T15:31:11.190Z,100.00
2022-10-11T15:33:39.893Z,100.00
2022-10-11T15:36:09.946Z,100.00
2022-10-11T15:38:38.116Z,100.00
2022-10-11T15:41:08.373Z,100.00
2022-10-11T15:43:36.105Z,100.00
2022-10-11T15:46:04.541Z,100.00
2022-10-11T15:48:33.017Z,100.00
2022-10-11T15:51:01.043Z,100.00
2022-10-11T15:53:31.065Z,100.00
2022-10-11T15:56:02.229Z,100.00
2022-10-11T15:58:33.665Z,100.00
2022-10-11T16:01:05.463Z,100.00
2022-10-11T16:03:34.475Z,100.00
2022-10-11T16:06:05.476Z,100.00
2022-10-11T16:08:33.561Z,100.00
2022-10-11T16:11:01.588Z,100.00
2022-10-11T16:13:29.338Z,100.00
2022-10-11T16:15:58.808Z,100.00
2022-10-11T16:18:27.609Z,100.00
2022-10-11T16:20:58.181Z,100.00
2022-10-11T16:23:26.144Z,100.00
2022-10-11T16:26:01.359Z,100.00
2022-10-11T16:28:29.885Z,100.00
2022-10-11T16:30:59.331Z,100.00
2022-10-11T16:33:27.675Z,100.00
2022-10-11T16:36:15.410Z,100.00
2022-10-11T16:38:43.177Z,100.00
2022-10-11T16:41:11.026Z,100.00
2022-10-11T16:43:38.784Z,100.00
2022-10-11T16:46:08.787Z,100.00
2022-10-11T16:48:36.769Z,100.00
2022-10-11T16:51:08.554Z,100.00
2022-10-11T16:53:36.472Z,100.00
2022-10-11T16:56:07.456Z,100.00
2022-10-11T16:58:36.345Z,100.00
2022-10-11T17:01:11.213Z,100.00
2022-10-11T17:03:39.374Z,100.00
2022-10-11T17:06:08.277Z,100.00
2022-10-11T17:08:36.803Z,100.00
2022-10-11T17:11:05.013Z,100.00
2022-10-11T17:13:33.185Z,100.00
2022-10-11T17:16:00.851Z,100.00
2022-10-11T17:18:30.004Z,100.00
2022-10-11T17:21:04.641Z,100.00
2022-10-11T17:23:32.587Z,100.00
2022-10-11T17:26:07.317Z,100.00
2022-10-11T17:28:38.651Z,100.00
2022-10-11T17:31:08.172Z,100.00
2022-10-11T17:33:37.612Z,100.00
2022-10-11T17:36:14.954Z,100.00
2022-10-11T17:38:42.688Z,100.00
2022-10-11T17:41:11.354Z,100.00
2022-10-11T17:43:39.513Z,100.00
2022-10-11T17:46:09.123Z,100.00
2022-10-11T17:48:39.298Z,100.00
2022-10-11T17:51:09.156Z,100.00
2022-10-11T17:53:37.601Z,100.00
2022-10-11T17:56:06.846Z,100.00
2022-10-11T17:58:34.746Z,100.00
2022-10-11T18:01:04.281Z,100.00
2022-10-11T18:03:32.718Z,100.00
2022-10-11T18:06:03.704Z,100.00
2022-10-11T18:08:32.755Z,100.00
2022-10-11T18:11:03.246Z,100.00
2022-10-11T18:13:31.186Z,100.00
2022-10-11T18:15:59.015Z,100.00
2022-10-11T18:18:26.786Z,100.00
2022-10-11T18:20:54.494Z,100.00
2022-10-11T18:23:23.555Z,100.00
2022-10-11T18:25:51.237Z,100.00
2022-10-11T18:28:19.141Z,100.00
2022-10-11T18:30:48.323Z,100.00
2022-10-11T18:33:17.450Z,100.00
2022-10-11T18:35:45.145Z,100.00
2022-10-11T18:38:12.925Z,100.00
2022-10-11T18:40:46.868Z,100.00
2022-10-11T18:43:14.981Z,100.00
2022-10-11T18:45:42.804Z,100.00
2022-10-11T18:48:10.545Z,100.00
2022-10-11T18:50:38.290Z,100.00
2022-10-11T18:53:06.889Z,100.00
2022-10-11T18:55:34.616Z,100.00
2022-10-11T18:58:03.710Z,100.00
2022-10-11T19:00:40.783Z,100.00
2022-10-11T19:03:09.119Z,100.00
2022-10-11T19:05:39.494Z,100.00
2022-10-11T19:08:07.259Z,100.00
2022-10-11T19:10:35.486Z,100.00
2022-10-11T19:13:04.605Z,100.00
2022-10-11T19:15:32.305Z,100.00
2022-10-11T19:17:59.986Z,100.00
2022-10-11T19:20:27.698Z,100.00
2022-10-11T19:22:55.419Z,100.00
2022-10-11T19:25:23.764Z,100.00
2022-10-11T19:27:51.451Z,100.00
2022-10-11T19:30:21.737Z,100.00
2022-10-11T19:32:49.470Z,100.00
2022-10-11T19:35:19.921Z,100.00
2022-10-11T19:37:47.922Z,100.00
2022-10-11T19:40:15.736Z,100.00
2022-10-11T19:42:43.406Z,100.00
2022-10-11T19:45:11.522Z,100.00
2022-10-11T19:47:40.602Z,100.00
2022-10-11T19:50:09.151Z,100.00
2022-10-11T19:52:40.356Z,100.00
2022-10-11T19:55:11.053Z,100.00
2022-10-11T19:57:38.818Z,100.00
2022-10-11T20:00:07.370Z,100.00
2022-10-11T20:02:35.034Z,100.00
2022-10-11T20:05:04.508Z,100.00
2022-10-11T20:07:32.500Z,100.00
2022-10-11T20:10:00.533Z,100.00
2022-10-11T20:12:29.502Z,100.00
2022-10-11T20:14:57.286Z,100.00
2022-10-11T20:17:45.072Z,100.00
2022-10-11T20:20:14.253Z,100.00
2022-10-11T20:22:41.974Z,100.00
2022-10-11T20:25:10.194Z,100.00
2022-10-11T20:27:38.005Z,100.00
2022-10-11T20:30:06.644Z,100.00
2022-10-11T20:32:34.340Z,100.00
2022-10-11T20:35:02.270Z,100.00
2022-10-11T20:37:31.673Z,100.00
2022-10-11T20:39:59.528Z,100.00
2022-10-11T20:42:29.693Z,100.00
2022-10-11T20:44:59.000Z,100.00
2022-10-11T20:47:26.718Z,100.00
2022-10-11T20:49:54.544Z,100.00
2022-10-11T20:52:22.238Z,100.00
2022-10-11T20:54:51.315Z,100.00
2022-10-11T20:57:19.121Z,100.00
2022-10-11T20:59:46.838Z,100.00
2022-10-11T21:02:18.837Z,100.00
2022-10-11T21:04:46.795Z,100.00
2022-10-11T21:07:14.570Z,100.00
2022-10-11T21:09:42.291Z,100.00
2022-10-11T21:12:11.352Z,100.00
2022-10-11T21:14:39.054Z,100.00
2022-10-11T21:17:06.746Z,100.00
2022-10-11T21:19:34.494Z,100.00
2022-10-11T21:22:02.222Z,100.00
2022-10-11T21:24:30.055Z,100.00
2022-10-11T21:27:00.617Z,100.00
2022-10-11T21:29:30.603Z,100.00
2022-10-11T21:31:58.295Z,100.00
2022-10-11T21:34:25.985Z,100.00
2022-10-11T21:36:53.644Z,100.00
2022-10-11T21:39:21.529Z,100.00
2022-10-11T21:41:49.323Z,100.00
2022-10-11T21:44:17.186Z,100.00
2022-10-11T21:49:33.928Z,100.00
2022-10-11T21:52:01.821Z,100.00
2022-10-11T21:54:29.671Z,100.00
2022-10-11T21:56:57.402Z,100.00
2022-10-11T21:59:25.159Z,100.00
2022-10-11T22:01:58.080Z,100.00
2022-10-11T22:04:28.537Z,100.00
2022-10-11T22:06:56.521Z,100.00
2022-10-11T22:09:24.285Z,100.00
2022-10-11T22:11:51.946Z,100.00
2022-10-11T22:14:19.640Z,100.00
2022-10-11T22:16:47.358Z,100.00
2022-10-11T22:19:16.479Z,100.00
2022-10-11T22:21:45.243Z,100.00
2022-10-11T22:24:13.764Z,100.00
2022-10-11T22:26:41.516Z,100.00
2022-10-11T22:29:09.231Z,100.00
2022-10-11T22:31:37.144Z,100.00
2022-10-11T22:34:04.904Z,100.00
2022-10-11T22:36:34.519Z,100.00
2022-10-11T22:39:07.505Z,100.00
2022-10-11T22:41:36.105Z,100.00
2022-10-11T22:44:03.947Z,100.00
2022-10-11T22:46:31.944Z,100.00
2022-10-11T22:48:59.704Z,100.00
2022-10-11T22:51:27.479Z,100.00
2022-10-11T22:53:56.612Z,100.00
2022-10-11T22:56:24.231Z,100.00
2022-10-11T22:58:51.945Z,100.00
2022-10-11T23:01:19.653Z,100.00
2022-10-11T23:03:50.633Z,100.00
2022-10-11T23:06:18.702Z,100.00
2022-10-11T23:08:46.380Z,100.00
2022-10-11T23:11:15.446Z,100.00
2022-10-11T23:13:43.150Z,100.00
2022-10-11T23:16:12.740Z,100.00
2022-10-11T23:18:40.680Z,100.00
2022-10-11T23:21:09.202Z,100.00
2022-10-11T23:23:37.118Z,100.00
2022-10-11T23:26:07.214Z,100.00
2022-10-11T23:28:36.458Z,100.00
2022-10-11T23:31:08.760Z,100.00
2022-10-11T23:33:36.725Z,100.00
2022-10-11T23:36:04.927Z,100.00
2022-10-11T23:38:32.803Z,100.00
2022-10-11T23:41:00.583Z,100.00
2022-10-11T23:43:28.609Z,100.00
2022-10-11T23:45:57.750Z,100.00
2022-10-11T23:48:25.438Z,100.00
2022-10-11T23:50:53.213Z,100.00
2022-10-11T23:53:20.932Z,100.00
2022-10-11T23:55:48.636Z,100.00
2022-10-11T23:58:16.498Z,100.00
